Weather at Idroscalo di Manfredonia

Public forecast

Using degrees Celsius for public forecast. Weather courtesy of forecast.io.

Closest aviation weather report (METAR) to Idroscalo di Manfredonia

Closest report is Amendola Air Base, 9.9 nm (18.4 km) WSW.

2024/05/30 03:55 (retrieved 37 minutes ago)

LIBA 300355Z 15002KT 9999 FEW040 16/14 Q1010

Closest aviation forecast (TAF) to Idroscalo di Manfredonia

Forecast is more than 6 hours old.

Closest forecast is Foggia "Gino Lisa" Airport, 20.4 nm (37.7 km) WSW.

2024/05/29 18:00 Ammendment (retrieved 11 hours ago)

TAF AMD LIBF 292123Z 2918/3018 CNL